sensor_id;sensor_type;location;lat;lon;timestamp;P1;durP1;ratioP1;P2;durP2;ratioP2
44446;SDS011;30152;52.066;5.358;2023-04-28T06:08:25;21.60;;;9.98;;
44446;SDS011;30152;52.066;5.358;2023-04-28T06:10:51;19.67;;;10.05;;
44446;SDS011;30152;52.066;5.358;2023-04-28T06:13:17;21.80;;;10.15;;
44446;SDS011;30152;52.066;5.358;2023-04-28T06:15:42;22.65;;;10.23;;
44446;SDS011;30152;52.066;5.358;2023-04-28T06:18:08;18.85;;;10.60;;
44446;SDS011;30152;52.066;5.358;2023-04-28T06:20:34;18.70;;;10.20;;
44446;SDS011;30152;52.066;5.358;2023-04-28T06:23:00;24.27;;;10.93;;
44446;SDS011;30152;52.066;5.358;2023-04-28T06:25:27;24.25;;;10.35;;
44446;SDS011;30152;52.066;5.358;2023-04-28T06:27:53;22.63;;;10.48;;
44446;SDS011;30152;52.066;5.358;2023-04-28T06:30:20;20.58;;;10.23;;
44446;SDS011;30152;52.066;5.358;2023-04-28T06:32:47;30.48;;;12.25;;
44446;SDS011;30152;52.066;5.358;2023-04-28T06:35:13;20.95;;;11.23;;
44446;SDS011;30152;52.066;5.358;2023-04-28T06:37:39;22.63;;;11.65;;
44446;SDS011;30152;52.066;5.358;2023-04-28T06:40:05;21.80;;;11.85;;
44446;SDS011;30152;52.066;5.358;2023-04-28T06:42:32;21.42;;;10.48;;
44446;SDS011;30152;52.066;5.358;2023-04-28T06:44:58;23.42;;;11.75;;
44446;SDS011;30152;52.066;5.358;2023-04-28T06:47:24;22.85;;;13.20;;
44446;SDS011;30152;52.066;5.358;2023-04-28T06:49:49;26.80;;;12.90;;
44446;SDS011;30152;52.066;5.358;2023-04-28T06:52:15;21.20;;;12.70;;
44446;SDS011;30152;52.066;5.358;2023-04-28T06:54:41;22.67;;;13.05;;
44446;SDS011;30152;52.066;5.358;2023-04-28T06:57:06;29.23;;;13.73;;
44446;SDS011;30152;52.066;5.358;2023-04-28T06:59:32;21.80;;;13.30;;
44446;SDS011;30152;52.066;5.358;2023-04-28T07:01:58;26.25;;;14.52;;
44446;SDS011;30152;52.066;5.358;2023-04-28T07:04:24;31.00;;;15.05;;
44446;SDS011;30152;52.066;5.358;2023-04-28T07:06:51;24.38;;;13.68;;
44446;SDS011;30152;52.066;5.358;2023-04-28T07:09:16;23.90;;;13.23;;
44446;SDS011;30152;52.066;5.358;2023-04-28T07:11:42;29.00;;;14.60;;
44446;SDS011;30152;52.066;5.358;2023-04-28T07:14:08;23.90;;;12.85;;
44446;SDS011;30152;52.066;5.358;2023-04-28T07:16:34;24.42;;;13.90;;
44446;SDS011;30152;52.066;5.358;2023-04-28T07:19:00;29.42;;;14.00;;
44446;SDS011;30152;52.066;5.358;2023-04-28T07:21:25;24.02;;;14.27;;
44446;SDS011;30152;52.066;5.358;2023-04-28T07:23:52;28.20;;;14.75;;
44446;SDS011;30152;52.066;5.358;2023-04-28T07:26:20;23.02;;;14.48;;
44446;SDS011;30152;52.066;5.358;2023-04-28T07:28:46;28.38;;;15.07;;
44446;SDS011;30152;52.066;5.358;2023-04-28T07:31:12;24.45;;;14.40;;
44446;SDS011;30152;52.066;5.358;2023-04-28T07:33:38;27.40;;;15.93;;
44446;SDS011;30152;52.066;5.358;2023-04-28T07:36:04;29.45;;;15.25;;
44446;SDS011;30152;52.066;5.358;2023-04-28T07:38:30;26.42;;;16.45;;
44446;SDS011;30152;52.066;5.358;2023-04-28T07:40:58;25.77;;;14.82;;
44446;SDS011;30152;52.066;5.358;2023-04-28T07:43:23;31.17;;;16.02;;
44446;SDS011;30152;52.066;5.358;2023-04-28T07:45:49;26.33;;;15.13;;
44446;SDS011;30152;52.066;5.358;2023-04-28T07:48:14;31.85;;;16.80;;
44446;SDS011;30152;52.066;5.358;2023-04-28T07:50:40;28.27;;;16.02;;
44446;SDS011;30152;52.066;5.358;2023-04-28T07:53:06;29.55;;;16.50;;
44446;SDS011;30152;52.066;5.358;2023-04-28T07:55:32;29.20;;;17.42;;
44446;SDS011;30152;52.066;5.358;2023-04-28T07:57:58;32.63;;;16.50;;
44446;SDS011;30152;52.066;5.358;2023-04-28T08:00:24;26.98;;;16.83;;
44446;SDS011;30152;52.066;5.358;2023-04-28T08:02:50;29.50;;;16.55;;
44446;SDS011;30152;52.066;5.358;2023-04-28T08:05:15;26.90;;;15.80;;
44446;SDS011;30152;52.066;5.358;2023-04-28T08:07:41;27.48;;;16.85;;
44446;SDS011;30152;52.066;5.358;2023-04-28T08:10:08;29.70;;;16.17;;
44446;SDS011;30152;52.066;5.358;2023-04-28T08:12:35;26.90;;;16.73;;
44446;SDS011;30152;52.066;5.358;2023-04-28T08:15:01;24.88;;;16.30;;
44446;SDS011;30152;52.066;5.358;2023-04-28T08:17:27;33.55;;;18.05;;
44446;SDS011;30152;52.066;5.358;2023-04-28T08:19:53;28.88;;;17.10;;
44446;SDS011;30152;52.066;5.358;2023-04-28T08:22:19;28.63;;;17.70;;
44446;SDS011;30152;52.066;5.358;2023-04-28T08:24:44;34.17;;;18.77;;
44446;SDS011;30152;52.066;5.358;2023-04-28T08:27:10;31.30;;;19.33;;
44446;SDS011;30152;52.066;5.358;2023-04-28T08:29:36;37.70;;;21.65;;
44446;SDS011;30152;52.066;5.358;2023-04-28T08:32:02;36.40;;;21.63;;
44446;SDS011;30152;52.066;5.358;2023-04-28T08:34:30;38.97;;;22.70;;
44446;SDS011;30152;52.066;5.358;2023-04-28T08:36:56;36.97;;;23.30;;
44446;SDS011;30152;52.066;5.358;2023-04-28T08:39:22;37.40;;;22.95;;
44446;SDS011;30152;52.066;5.358;2023-04-28T08:41:50;41.08;;;25.00;;
44446;SDS011;30152;52.066;5.358;2023-04-28T08:44:16;46.33;;;25.65;;
44446;SDS011;30152;52.066;5.358;2023-04-28T08:46:43;47.80;;;26.17;;
44446;SDS011;30152;52.066;5.358;2023-04-28T08:49:13;40.40;;;25.85;;
44446;SDS011;30152;52.066;5.358;2023-04-28T08:51:44;43.58;;;25.65;;
44446;SDS011;30152;52.066;5.358;2023-04-28T08:54:12;46.00;;;26.58;;
44446;SDS011;30152;52.066;5.358;2023-04-28T08:56:39;46.40;;;27.30;;
44446;SDS011;30152;52.066;5.358;2023-04-28T08:59:09;42.80;;;27.35;;
44446;SDS011;30152;52.066;5.358;2023-04-28T09:01:35;41.55;;;26.90;;
44446;SDS011;30152;52.066;5.358;2023-04-28T09:04:01;44.25;;;28.27;;
44446;SDS011;30152;52.066;5.358;2023-04-28T09:06:31;47.35;;;29.25;;
44446;SDS011;30152;52.066;5.358;2023-04-28T09:09:16;49.85;;;29.52;;
44446;SDS011;30152;52.066;5.358;2023-04-28T09:11:52;50.20;;;31.15;;
44446;SDS011;30152;52.066;5.358;2023-04-28T09:14:19;50.03;;;29.95;;
44446;SDS011;30152;52.066;5.358;2023-04-28T09:16:46;50.75;;;30.75;;
44446;SDS011;30152;52.066;5.358;2023-04-28T09:19:12;49.80;;;30.55;;
44446;SDS011;30152;52.066;5.358;2023-04-28T09:21:48;50.35;;;31.00;;
44446;SDS011;30152;52.066;5.358;2023-04-28T09:24:33;49.80;;;29.73;;
44446;SDS011;30152;52.066;5.358;2023-04-28T09:26:59;46.28;;;28.40;;
44446;SDS011;30152;52.066;5.358;2023-04-28T09:29:26;48.03;;;29.70;;
44446;SDS011;30152;52.066;5.358;2023-04-28T09:31:52;43.60;;;27.15;;
44446;SDS011;30152;52.066;5.358;2023-04-28T09:34:19;49.42;;;30.05;;
44446;SDS011;30152;52.066;5.358;2023-04-28T09:36:46;45.83;;;28.77;;
44446;SDS011;30152;52.066;5.358;2023-04-28T09:39:12;46.80;;;28.80;;
44446;SDS011;30152;52.066;5.358;2023-04-28T09:41:38;45.35;;;29.73;;
44446;SDS011;30152;52.066;5.358;2023-04-28T09:44:17;40.35;;;27.27;;
44446;SDS011;30152;52.066;5.358;2023-04-28T09:46:46;39.80;;;26.52;;
44446;SDS011;30152;52.066;5.358;2023-04-28T09:49:12;39.88;;;25.73;;
44446;SDS011;30152;52.066;5.358;2023-04-28T09:51:38;35.60;;;23.23;;
44446;SDS011;30152;52.066;5.358;2023-04-28T09:54:04;35.17;;;22.90;;
44446;SDS011;30152;52.066;5.358;2023-04-28T09:56:31;36.50;;;24.48;;
44446;SDS011;30152;52.066;5.358;2023-04-28T09:58:58;34.75;;;21.60;;
44446;SDS011;30152;52.066;5.358;2023-04-28T10:01:31;33.67;;;22.77;;
44446;SDS011;30152;52.066;5.358;2023-04-28T10:04:07;33.55;;;21.90;;
44446;SDS011;30152;52.066;5.358;2023-04-28T10:06:33;32.58;;;21.92;;
44446;SDS011;30152;52.066;5.358;2023-04-28T10:09:00;34.65;;;22.08;;
44446;SDS011;30152;52.066;5.358;2023-04-28T10:11:26;32.28;;;22.33;;
44446;SDS011;30152;52.066;5.358;2023-04-28T10:13:54;35.08;;;21.92;;
44446;SDS011;30152;52.066;5.358;2023-04-28T10:16:20;34.00;;;21.63;;
44446;SDS011;30152;52.066;5.358;2023-04-28T10:18:47;30.42;;;21.40;;
44446;SDS011;30152;52.066;5.358;2023-04-28T10:21:15;33.97;;;21.63;;
44446;SDS011;30152;52.066;5.358;2023-04-28T10:23:58;35.05;;;21.67;;
44446;SDS011;30152;52.066;5.358;2023-04-28T10:29:23;34.80;;;20.17;;
44446;SDS011;30152;52.066;5.358;2023-04-28T10:34:43;36.05;;;21.00;;
44446;SDS011;30152;52.066;5.358;2023-04-28T10:37:09;34.15;;;21.13;;
44446;SDS011;30152;52.066;5.358;2023-04-28T10:39:35;33.20;;;21.17;;
44446;SDS011;30152;52.066;5.358;2023-04-28T10:42:01;34.63;;;21.67;;
44446;SDS011;30152;52.066;5.358;2023-04-28T10:47:02;37.53;;;21.35;;
44446;SDS011;30152;52.066;5.358;2023-04-28T11:00:40;37.55;;;23.33;;
44446;SDS011;30152;52.066;5.358;2023-04-28T11:03:31;40.53;;;24.45;;
44446;SDS011;30152;52.066;5.358;2023-04-28T11:06:17;38.03;;;23.33;;
44446;SDS011;30152;52.066;5.358;2023-04-28T11:08:47;39.50;;;25.02;;
44446;SDS011;30152;52.066;5.358;2023-04-28T11:11:14;41.95;;;23.98;;
44446;SDS011;30152;52.066;5.358;2023-04-28T11:13:41;46.50;;;25.58;;
44446;SDS011;30152;52.066;5.358;2023-04-28T11:16:07;45.15;;;25.17;;
44446;SDS011;30152;52.066;5.358;2023-04-28T11:21:17;45.65;;;24.52;;
44446;SDS011;30152;52.066;5.358;2023-04-28T11:23:44;43.20;;;24.10;;
44446;SDS011;30152;52.066;5.358;2023-04-28T11:26:10;46.83;;;24.20;;
44446;SDS011;30152;52.066;5.358;2023-04-28T11:28:36;39.45;;;21.92;;
44446;SDS011;30152;52.066;5.358;2023-04-28T11:31:11;37.75;;;20.98;;
44446;SDS011;30152;52.066;5.358;2023-04-28T11:33:38;36.10;;;19.80;;
44446;SDS011;30152;52.066;5.358;2023-04-28T11:36:05;34.10;;;17.23;;
44446;SDS011;30152;52.066;5.358;2023-04-28T11:38:41;28.67;;;15.55;;
44446;SDS011;30152;52.066;5.358;2023-04-28T11:41:07;31.30;;;15.10;;
44446;SDS011;30152;52.066;5.358;2023-04-28T11:43:34;25.27;;;12.85;;
44446;SDS011;30152;52.066;5.358;2023-04-28T11:46:00;26.33;;;12.30;;
44446;SDS011;30152;52.066;5.358;2023-04-28T11:48:26;25.27;;;13.40;;
44446;SDS011;30152;52.066;5.358;2023-04-28T11:50:52;24.27;;;12.55;;
44446;SDS011;30152;52.066;5.358;2023-04-28T11:53:18;24.98;;;12.73;;
44446;SDS011;30152;52.066;5.358;2023-04-28T11:55:44;18.75;;;11.32;;
44446;SDS011;30152;52.066;5.358;2023-04-28T11:58:19;24.33;;;11.65;;
44446;SDS011;30152;52.066;5.358;2023-04-28T12:01:09;28.90;;;12.38;;
44446;SDS011;30152;52.066;5.358;2023-04-28T12:03:43;20.27;;;11.43;;
44446;SDS011;30152;52.066;5.358;2023-04-28T12:06:09;22.33;;;10.75;;
44446;SDS011;30152;52.066;5.358;2023-04-28T12:08:35;23.75;;;11.80;;
44446;SDS011;30152;52.066;5.358;2023-04-28T12:11:08;22.60;;;11.35;;
44446;SDS011;30152;52.066;5.358;2023-04-28T12:13:42;25.85;;;12.60;;
44446;SDS011;30152;52.066;5.358;2023-04-28T12:16:08;23.58;;;10.95;;
44446;SDS011;30152;52.066;5.358;2023-04-28T12:18:34;19.55;;;10.52;;
44446;SDS011;30152;52.066;5.358;2023-04-28T12:21:01;16.85;;;8.82;;
44446;SDS011;30152;52.066;5.358;2023-04-28T12:23:30;16.73;;;8.32;;
44446;SDS011;30152;52.066;5.358;2023-04-28T12:25:56;19.85;;;8.52;;
44446;SDS011;30152;52.066;5.358;2023-04-28T12:28:23;17.75;;;9.05;;
44446;SDS011;30152;52.066;5.358;2023-04-28T12:31:04;15.23;;;7.50;;
44446;SDS011;30152;52.066;5.358;2023-04-28T12:33:33;14.90;;;7.38;;
44446;SDS011;30152;52.066;5.358;2023-04-28T12:36:01;12.27;;;5.78;;
44446;SDS011;30152;52.066;5.358;2023-04-28T12:38:28;14.20;;;6.10;;
44446;SDS011;30152;52.066;5.358;2023-04-28T12:40:55;12.57;;;5.53;;
44446;SDS011;30152;52.066;5.358;2023-04-28T12:43:21;11.90;;;5.55;;
44446;SDS011;30152;52.066;5.358;2023-04-28T12:45:51;11.05;;;5.60;;
44446;SDS011;30152;52.066;5.358;2023-04-28T12:48:17;9.40;;;4.90;;
44446;SDS011;30152;52.066;5.358;2023-04-28T12:50:43;11.55;;;5.53;;
44446;SDS011;30152;52.066;5.358;2023-04-28T12:53:09;10.60;;;5.07;;
44446;SDS011;30152;52.066;5.358;2023-04-28T12:55:35;13.27;;;5.03;;
44446;SDS011;30152;52.066;5.358;2023-04-28T12:58:02;8.65;;;4.75;;
44446;SDS011;30152;52.066;5.358;2023-04-28T13:00:28;10.10;;;4.13;;
44446;SDS011;30152;52.066;5.358;2023-04-28T13:02:54;8.75;;;4.47;;
44446;SDS011;30152;52.066;5.358;2023-04-28T13:05:20;8.00;;;3.97;;
44446;SDS011;30152;52.066;5.358;2023-04-28T13:07:46;8.95;;;3.95;;
44446;SDS011;30152;52.066;5.358;2023-04-28T13:10:13;8.43;;;3.95;;
44446;SDS011;30152;52.066;5.358;2023-04-28T13:12:38;8.55;;;4.10;;
44446;SDS011;30152;52.066;5.358;2023-04-28T13:15:05;8.18;;;4.53;;
44446;SDS011;30152;52.066;5.358;2023-04-28T13:17:31;9.23;;;5.50;;
44446;SDS011;30152;52.066;5.358;2023-04-28T13:19:57;9.25;;;5.32;;
44446;SDS011;30152;52.066;5.358;2023-04-28T13:22:25;9.77;;;6.05;;
44446;SDS011;30152;52.066;5.358;2023-04-28T13:24:51;11.57;;;6.22;;
44446;SDS011;30152;52.066;5.358;2023-04-28T13:27:16;11.13;;;6.30;;
44446;SDS011;30152;52.066;5.358;2023-04-28T13:29:42;11.23;;;6.93;;
44446;SDS011;30152;52.066;5.358;2023-04-28T13:32:08;12.13;;;7.18;;
44446;SDS011;30152;52.066;5.358;2023-04-28T13:34:34;10.13;;;6.72;;
44446;SDS011;30152;52.066;5.358;2023-04-28T13:37:01;10.25;;;6.72;;
44446;SDS011;30152;52.066;5.358;2023-04-28T13:39:27;15.07;;;7.78;;
44446;SDS011;30152;52.066;5.358;2023-04-28T13:41:53;11.63;;;8.02;;
44446;SDS011;30152;52.066;5.358;2023-04-28T13:44:19;11.00;;;7.68;;
44446;SDS011;30152;52.066;5.358;2023-04-28T13:46:45;11.80;;;8.20;;
44446;SDS011;30152;52.066;5.358;2023-04-28T13:49:11;10.75;;;7.63;;
44446;SDS011;30152;52.066;5.358;2023-04-28T13:51:37;13.32;;;8.27;;
44446;SDS011;30152;52.066;5.358;2023-04-28T13:54:03;11.30;;;8.30;;
44446;SDS011;30152;52.066;5.358;2023-04-28T13:56:32;11.50;;;8.40;;
44446;SDS011;30152;52.066;5.358;2023-04-28T13:58:58;12.13;;;8.93;;
44446;SDS011;30152;52.066;5.358;2023-04-28T14:01:23;11.77;;;8.70;;
44446;SDS011;30152;52.066;5.358;2023-04-28T14:03:49;11.57;;;8.77;;
44446;SDS011;30152;52.066;5.358;2023-04-28T14:06:15;12.18;;;9.45;;
44446;SDS011;30152;52.066;5.358;2023-04-28T14:08:41;12.23;;;8.95;;
44446;SDS011;30152;52.066;5.358;2023-04-28T14:11:07;11.68;;;8.73;;
44446;SDS011;30152;52.066;5.358;2023-04-28T14:13:33;11.65;;;8.82;;
44446;SDS011;30152;52.066;5.358;2023-04-28T14:15:59;11.07;;;7.85;;
44446;SDS011;30152;52.066;5.358;2023-04-28T14:18:26;11.38;;;7.80;;
44446;SDS011;30152;52.066;5.358;2023-04-28T14:20:52;12.15;;;8.52;;
44446;SDS011;30152;52.066;5.358;2023-04-28T14:23:18;13.48;;;8.43;;
44446;SDS011;30152;52.066;5.358;2023-04-28T14:25:44;12.93;;;8.35;;
44446;SDS011;30152;52.066;5.358;2023-04-28T14:28:10;13.05;;;8.57;;
44446;SDS011;30152;52.066;5.358;2023-04-28T14:30:36;14.43;;;8.43;;
44446;SDS011;30152;52.066;5.358;2023-04-28T14:33:02;17.92;;;9.25;;
44446;SDS011;30152;52.066;5.358;2023-04-28T14:35:28;13.63;;;8.85;;
44446;SDS011;30152;52.066;5.358;2023-04-28T14:37:55;14.88;;;8.68;;
44446;SDS011;30152;52.066;5.358;2023-04-28T14:40:21;16.10;;;9.70;;
44446;SDS011;30152;52.066;5.358;2023-04-28T14:42:47;16.55;;;9.52;;
44446;SDS011;30152;52.066;5.358;2023-04-28T14:45:13;20.83;;;10.68;;
44446;SDS011;30152;52.066;5.358;2023-04-28T14:47:39;19.90;;;11.85;;
44446;SDS011;30152;52.066;5.358;2023-04-28T14:50:05;20.88;;;11.50;;
44446;SDS011;30152;52.066;5.358;2023-04-28T14:52:31;24.92;;;14.00;;
44446;SDS011;30152;52.066;5.358;2023-04-28T14:54:57;23.23;;;13.98;;
44446;SDS011;30152;52.066;5.358;2023-04-28T14:57:24;24.52;;;14.00;;
44446;SDS011;30152;52.066;5.358;2023-04-28T14:59:50;21.42;;;13.68;;
44446;SDS011;30152;52.066;5.358;2023-04-28T15:02:17;26.80;;;15.38;;
44446;SDS011;30152;52.066;5.358;2023-04-28T15:04:45;27.25;;;14.32;;
44446;SDS011;30152;52.066;5.358;2023-04-28T15:07:11;26.33;;;14.82;;
44446;SDS011;30152;52.066;5.358;2023-04-28T15:09:37;26.75;;;15.85;;
44446;SDS011;30152;52.066;5.358;2023-04-28T15:12:03;27.17;;;15.55;;
44446;SDS011;30152;52.066;5.358;2023-04-28T15:14:29;30.83;;;17.00;;
44446;SDS011;30152;52.066;5.358;2023-04-28T15:16:55;28.65;;;15.75;;
44446;SDS011;30152;52.066;5.358;2023-04-28T15:19:21;30.13;;;16.10;;
44446;SDS011;30152;52.066;5.358;2023-04-28T15:21:47;29.23;;;16.52;;
44446;SDS011;30152;52.066;5.358;2023-04-28T15:24:14;32.72;;;17.17;;
44446;SDS011;30152;52.066;5.358;2023-04-28T15:26:40;34.33;;;17.38;;
44446;SDS011;30152;52.066;5.358;2023-04-28T15:29:08;26.98;;;17.88;;
44446;SDS011;30152;52.066;5.358;2023-04-28T15:31:34;31.65;;;18.70;;
44446;SDS011;30152;52.066;5.358;2023-04-28T15:34:00;32.10;;;18.83;;
44446;SDS011;30152;52.066;5.358;2023-04-28T15:36:26;31.38;;;19.00;;
44446;SDS011;30152;52.066;5.358;2023-04-28T15:38:52;32.90;;;18.85;;
44446;SDS011;30152;52.066;5.358;2023-04-28T15:41:18;28.48;;;16.25;;
44446;SDS011;30152;52.066;5.358;2023-04-28T15:43:44;26.10;;;15.60;;
44446;SDS011;30152;52.066;5.358;2023-04-28T15:46:10;22.55;;;14.32;;
44446;SDS011;30152;52.066;5.358;2023-04-28T15:48:41;22.42;;;13.82;;
44446;SDS011;30152;52.066;5.358;2023-04-28T15:51:08;23.83;;;14.02;;
44446;SDS011;30152;52.066;5.358;2023-04-28T15:53:34;26.02;;;14.65;;
44446;SDS011;30152;52.066;5.358;2023-04-28T15:56:00;29.08;;;15.32;;
44446;SDS011;30152;52.066;5.358;2023-04-28T15:58:28;29.92;;;14.77;;
44446;SDS011;30152;52.066;5.358;2023-04-28T16:00:54;31.80;;;15.27;;
44446;SDS011;30152;52.066;5.358;2023-04-28T16:03:21;30.73;;;14.35;;
44446;SDS011;30152;52.066;5.358;2023-04-28T16:05:47;26.45;;;15.50;;
44446;SDS011;30152;52.066;5.358;2023-04-28T16:08:13;30.55;;;15.40;;
44446;SDS011;30152;52.066;5.358;2023-04-28T16:10:39;31.55;;;17.05;;
44446;SDS011;30152;52.066;5.358;2023-04-28T16:13:06;29.17;;;15.85;;
44446;SDS011;30152;52.066;5.358;2023-04-28T16:15:35;28.77;;;15.65;;
44446;SDS011;30152;52.066;5.358;2023-04-28T16:18:01;31.23;;;16.52;;
44446;SDS011;30152;52.066;5.358;2023-04-28T16:20:26;32.22;;;18.10;;
44446;SDS011;30152;52.066;5.358;2023-04-28T16:22:52;32.30;;;17.80;;
44446;SDS011;30152;52.066;5.358;2023-04-28T16:25:18;37.08;;;18.30;;
44446;SDS011;30152;52.066;5.358;2023-04-28T16:27:44;34.58;;;18.15;;
44446;SDS011;30152;52.066;5.358;2023-04-28T16:30:10;35.15;;;18.08;;
44446;SDS011;30152;52.066;5.358;2023-04-28T16:32:36;37.20;;;19.38;;
44446;SDS011;30152;52.066;5.358;2023-04-28T16:35:02;31.55;;;18.40;;
44446;SDS011;30152;52.066;5.358;2023-04-28T16:37:30;38.45;;;19.88;;
44446;SDS011;30152;52.066;5.358;2023-04-28T16:39:56;37.17;;;19.98;;
44446;SDS011;30152;52.066;5.358;2023-04-28T16:42:21;34.03;;;19.25;;
44446;SDS011;30152;52.066;5.358;2023-04-28T16:44:47;37.22;;;19.25;;
44446;SDS011;30152;52.066;5.358;2023-04-28T16:47:14;30.35;;;18.50;;
44446;SDS011;30152;52.066;5.358;2023-04-28T16:49:40;31.95;;;18.17;;
44446;SDS011;30152;52.066;5.358;2023-04-28T16:52:05;33.00;;;17.80;;
44446;SDS011;30152;52.066;5.358;2023-04-28T16:54:32;30.00;;;17.83;;
44446;SDS011;30152;52.066;5.358;2023-04-28T16:56:58;30.20;;;17.35;;
44446;SDS011;30152;52.066;5.358;2023-04-28T16:59:24;30.73;;;17.55;;
44446;SDS011;30152;52.066;5.358;2023-04-28T17:01:53;32.05;;;17.23;;
44446;SDS011;30152;52.066;5.358;2023-04-28T17:04:19;31.40;;;16.48;;
44446;SDS011;30152;52.066;5.358;2023-04-28T17:06:47;29.98;;;15.82;;
44446;SDS011;30152;52.066;5.358;2023-04-28T17:09:16;32.33;;;17.10;;
44446;SDS011;30152;52.066;5.358;2023-04-28T17:11:42;26.17;;;14.88;;
44446;SDS011;30152;52.066;5.358;2023-04-28T17:14:08;22.55;;;13.82;;
44446;SDS011;30152;52.066;5.358;2023-04-28T17:16:34;26.52;;;13.68;;
44446;SDS011;30152;52.066;5.358;2023-04-28T17:19:01;21.90;;;12.65;;
44446;SDS011;30152;52.066;5.358;2023-04-28T17:21:26;22.38;;;12.35;;
44446;SDS011;30152;52.066;5.358;2023-04-28T17:23:53;22.48;;;12.40;;
44446;SDS011;30152;52.066;5.358;2023-04-28T17:26:21;21.70;;;11.82;;
44446;SDS011;30152;52.066;5.358;2023-04-28T17:28:47;21.65;;;11.38;;
44446;SDS011;30152;52.066;5.358;2023-04-28T17:31:12;20.40;;;10.55;;
44446;SDS011;30152;52.066;5.358;2023-04-28T17:33:39;17.25;;;9.07;;
44446;SDS011;30152;52.066;5.358;2023-04-28T17:36:04;15.35;;;8.02;;
44446;SDS011;30152;52.066;5.358;2023-04-28T17:38:30;12.73;;;6.70;;
44446;SDS011;30152;52.066;5.358;2023-04-28T17:40:56;13.95;;;7.20;;
44446;SDS011;30152;52.066;5.358;2023-04-28T17:43:22;12.60;;;6.78;;
44446;SDS011;30152;52.066;5.358;2023-04-28T17:45:49;11.52;;;5.68;;
44446;SDS011;30152;52.066;5.358;2023-04-28T17:48:18;11.13;;;5.10;;
44446;SDS011;30152;52.066;5.358;2023-04-28T17:50:44;11.20;;;4.72;;
44446;SDS011;30152;52.066;5.358;2023-04-28T17:53:09;9.27;;;4.03;;
44446;SDS011;30152;52.066;5.358;2023-04-28T17:55:36;12.80;;;6.07;;
44446;SDS011;30152;52.066;5.358;2023-04-28T17:58:01;5.47;;;2.67;;
44446;SDS011;30152;52.066;5.358;2023-04-28T18:00:27;6.22;;;2.70;;
44446;SDS011;30152;52.066;5.358;2023-04-28T18:02:53;5.07;;;2.10;;
44446;SDS011;30152;52.066;5.358;2023-04-28T18:05:19;4.57;;;2.00;;
44446;SDS011;30152;52.066;5.358;2023-04-28T18:07:47;5.20;;;2.10;;
44446;SDS011;30152;52.066;5.358;2023-04-28T18:10:13;5.18;;;2.20;;
44446;SDS011;30152;52.066;5.358;2023-04-28T18:12:40;6.85;;;2.83;;
44446;SDS011;30152;52.066;5.358;2023-04-28T18:15:06;7.28;;;2.90;;
44446;SDS011;30152;52.066;5.358;2023-04-28T18:17:32;7.18;;;3.13;;
44446;SDS011;30152;52.066;5.358;2023-04-28T18:19:58;7.60;;;3.50;;
44446;SDS011;30152;52.066;5.358;2023-04-28T18:22:24;10.60;;;3.53;;
44446;SDS011;30152;52.066;5.358;2023-04-28T18:24:51;8.15;;;3.78;;
44446;SDS011;30152;52.066;5.358;2023-04-28T18:27:17;10.02;;;4.72;;
44446;SDS011;30152;52.066;5.358;2023-04-28T18:29:42;12.90;;;6.25;;
44446;SDS011;30152;52.066;5.358;2023-04-28T18:32:09;15.77;;;7.25;;
44446;SDS011;30152;52.066;5.358;2023-04-28T18:34:35;22.80;;;9.27;;
44446;SDS011;30152;52.066;5.358;2023-04-28T18:37:00;23.63;;;10.30;;
44446;SDS011;30152;52.066;5.358;2023-04-28T18:39:26;24.67;;;9.77;;
44446;SDS011;30152;52.066;5.358;2023-04-28T18:41:52;29.63;;;12.63;;
44446;SDS011;30152;52.066;5.358;2023-04-28T18:44:18;25.25;;;12.38;;
44446;SDS011;30152;52.066;5.358;2023-04-28T18:46:44;28.42;;;12.32;;
44446;SDS011;30152;52.066;5.358;2023-04-28T18:49:10;29.13;;;12.38;;
44446;SDS011;30152;52.066;5.358;2023-04-28T18:51:36;28.83;;;12.88;;
44446;SDS011;30152;52.066;5.358;2023-04-28T18:54:02;40.55;;;15.23;;
44446;SDS011;30152;52.066;5.358;2023-04-28T18:56:29;37.63;;;15.52;;
44446;SDS011;30152;52.066;5.358;2023-04-28T18:58:55;39.25;;;17.75;;
44446;SDS011;30152;52.066;5.358;2023-04-28T19:01:22;38.10;;;17.40;;
44446;SDS011;30152;52.066;5.358;2023-04-28T19:03:48;40.53;;;18.10;;
44446;SDS011;30152;52.066;5.358;2023-04-28T19:06:14;53.30;;;20.17;;
44446;SDS011;30152;52.066;5.358;2023-04-28T19:08:41;52.65;;;22.73;;
44446;SDS011;30152;52.066;5.358;2023-04-28T19:11:08;42.72;;;21.48;;
44446;SDS011;30152;52.066;5.358;2023-04-28T19:13:35;47.47;;;20.38;;
44446;SDS011;30152;52.066;5.358;2023-04-28T19:16:01;45.95;;;22.00;;
44446;SDS011;30152;52.066;5.358;2023-04-28T19:18:28;52.53;;;22.42;;
44446;SDS011;30152;52.066;5.358;2023-04-28T19:21:01;48.63;;;21.67;;
44446;SDS011;30152;52.066;5.358;2023-04-28T19:23:28;47.42;;;21.27;;
44446;SDS011;30152;52.066;5.358;2023-04-28T19:25:55;47.67;;;21.67;;
44446;SDS011;30152;52.066;5.358;2023-04-28T19:28:22;57.65;;;25.13;;
44446;SDS011;30152;52.066;5.358;2023-04-28T19:30:49;54.40;;;23.00;;
44446;SDS011;30152;52.066;5.358;2023-04-28T19:33:15;49.88;;;23.30;;
44446;SDS011;30152;52.066;5.358;2023-04-28T19:35:41;52.45;;;22.23;;
44446;SDS011;30152;52.066;5.358;2023-04-28T19:38:07;52.25;;;22.88;;
44446;SDS011;30152;52.066;5.358;2023-04-28T19:40:33;53.45;;;24.42;;
44446;SDS011;30152;52.066;5.358;2023-04-28T19:42:59;52.67;;;23.10;;
44446;SDS011;30152;52.066;5.358;2023-04-28T19:45:25;60.97;;;25.42;;
44446;SDS011;30152;52.066;5.358;2023-04-28T19:47:51;52.55;;;24.05;;
44446;SDS011;30152;52.066;5.358;2023-04-28T19:50:17;55.47;;;25.70;;
44446;SDS011;30152;52.066;5.358;2023-04-28T19:52:43;62.38;;;26.45;;
44446;SDS011;30152;52.066;5.358;2023-04-28T19:55:10;52.58;;;24.67;;
44446;SDS011;30152;52.066;5.358;2023-04-28T19:57:37;57.72;;;25.30;;
44446;SDS011;30152;52.066;5.358;2023-04-28T20:00:03;61.45;;;25.75;;
44446;SDS011;30152;52.066;5.358;2023-04-28T20:02:29;54.78;;;25.85;;
44446;SDS011;30152;52.066;5.358;2023-04-28T20:04:54;58.10;;;25.75;;
44446;SDS011;30152;52.066;5.358;2023-04-28T20:07:20;56.95;;;26.63;;
44446;SDS011;30152;52.066;5.358;2023-04-28T20:09:46;58.47;;;27.20;;
44446;SDS011;30152;52.066;5.358;2023-04-28T20:12:12;62.85;;;28.80;;
44446;SDS011;30152;52.066;5.358;2023-04-28T20:14:39;62.70;;;28.38;;
44446;SDS011;30152;52.066;5.358;2023-04-28T20:17:06;56.80;;;28.23;;
44446;SDS011;30152;52.066;5.358;2023-04-28T20:19:33;59.85;;;27.75;;
44446;SDS011;30152;52.066;5.358;2023-04-28T20:22:00;60.80;;;30.15;;
44446;SDS011;30152;52.066;5.358;2023-04-28T20:24:28;70.60;;;30.20;;
44446;SDS011;30152;52.066;5.358;2023-04-28T20:26:54;62.88;;;29.88;;
44446;SDS011;30152;52.066;5.358;2023-04-28T20:29:19;59.70;;;29.70;;
44446;SDS011;30152;52.066;5.358;2023-04-28T20:31:45;59.35;;;29.38;;
44446;SDS011;30152;52.066;5.358;2023-04-28T20:34:11;65.13;;;30.42;;
44446;SDS011;30152;52.066;5.358;2023-04-28T20:36:37;61.45;;;29.58;;
44446;SDS011;30152;52.066;5.358;2023-04-28T20:39:03;66.20;;;29.00;;
44446;SDS011;30152;52.066;5.358;2023-04-28T20:41:31;68.28;;;29.95;;
44446;SDS011;30152;52.066;5.358;2023-04-28T20:43:57;66.38;;;30.55;;
44446;SDS011;30152;52.066;5.358;2023-04-28T20:46:23;77.93;;;32.90;;
44446;SDS011;30152;52.066;5.358;2023-04-28T20:48:48;77.75;;;34.35;;
